Time;durP1;ratioP1;P1;durP2;ratioP2;P2;SDS_P1;SDS_P2;PMS_P1;PMS_P2;Temp;Humidity;BMP_temperature;BMP_pressure;BME280_temperature;BME280_humidity;BME280_pressure;Samples;Min_cycle;Max_cycle;Signal;HPM_P1;HPM_P2
2022/08/02 00:02:06;;;;;;;3.40;1.80;;;;;;;23.60;63.05;99076.16;5109420;28;20195;-66
2022/08/02 00:04:32;;;;;;;2.20;2.10;;;;;;;23.58;62.91;99072.84;5108523;28;20655;-67
2022/08/02 00:06:59;;;;;;;2.10;1.70;;;;;;;23.56;62.84;99077.38;5109892;28;20210;-66
2022/08/02 00:09:26;;;;;;;2.03;1.93;;;;;;;23.50;62.98;99077.94;5109898;28;20602;-66
2022/08/02 00:11:53;;;;;;;1.77;1.67;;;;;;;23.43;63.29;99087.28;5109923;28;20195;-66
2022/08/02 00:14:20;;;;;;;1.40;1.40;;;;;;;23.46;62.91;99087.00;5109136;28;20663;-66
2022/08/02 00:16:48;;;;;;;1.87;1.77;;;;;;;23.49;63.08;99091.97;5113465;28;20198;-66
2022/08/02 00:19:15;;;;;;;1.57;1.57;;;;;;;23.50;62.61;99091.84;5113476;28;20199;-66
2022/08/02 00:21:42;;;;;;;1.53;1.53;;;;;;;23.39;62.38;99073.59;5113569;27;20750;-66
2022/08/02 00:24:09;;;;;;;2.10;1.90;;;;;;;23.48;62.57;99082.47;5113140;28;20198;-66
2022/08/02 00:26:36;;;;;;;2.13;1.77;;;;;;;23.51;62.22;99083.03;5113867;28;20199;-66
2022/08/02 00:29:03;;;;;;;1.73;1.63;;;;;;;23.53;62.33;99085.50;5113291;28;20720;-66
2022/08/02 00:31:30;;;;;;;1.23;1.23;;;;;;;23.53;62.37;99090.72;5112634;28;20206;-66
2022/08/02 00:33:59;;;;;;;1.10;1.10;;;;;;;23.53;61.79;99085.50;5110461;28;20210;-66
2022/08/02 00:36:26;;;;;;;1.47;1.47;;;;;;;23.53;62.15;99090.72;5112825;28;20209;-66
2022/08/02 00:38:53;;;;;;;1.70;1.70;;;;;;;23.45;62.47;99087.97;5112653;28;20670;-66
2022/08/02 00:41:21;;;;;;;1.47;1.20;;;;;;;23.26;61.97;99056.53;5112921;28;20190;-67
2022/08/02 00:43:50;;;;;;;1.37;1.30;;;;;;;23.34;62.15;99080.19;5112642;28;20289;-67
2022/08/02 00:46:18;;;;;;;1.27;1.27;;;;;;;23.18;62.46;99070.25;5112872;28;20198;-66
2022/08/02 00:48:45;;;;;;;2.00;1.60;;;;;;;23.14;63.15;99073.25;5112709;28;20263;-66
2022/08/02 00:51:14;;;;;;;1.60;1.60;;;;;;;23.13;63.42;99087.31;5111570;28;20199;-66
2022/08/02 00:53:41;;;;;;;2.40;1.57;;;;;;;23.08;63.68;99079.03;5113302;28;20205;-67
2022/08/02 00:56:08;;;;;;;2.47;2.00;;;;;;;22.99;63.55;99078.88;5111105;28;20297;-66
2022/08/02 00:58:34;;;;;;;2.13;2.03;;;;;;;22.96;64.39;99081.75;5110816;28;20206;-66
2022/08/02 01:01:02;;;;;;;1.63;1.60;;;;;;;22.72;64.51;99057.69;5108240;28;20218;-66
2022/08/02 01:03:29;;;;;;;1.83;1.73;;;;;;;22.85;64.51;99081.84;5110233;28;20658;-66
2022/08/02 01:05:55;;;;;;;1.97;1.87;;;;;;;22.73;64.48;99053.31;5110726;28;20257;-66
2022/08/02 01:08:24;;;;;;;1.40;1.40;;;;;;;22.84;64.45;99077.56;5110213;28;20203;-66
2022/08/02 01:10:50;;;;;;;1.83;1.80;;;;;;;22.86;65.08;99070.44;5112275;28;20701;-66
2022/08/02 01:13:17;;;;;;;2.10;1.87;;;;;;;22.81;64.72;99072.59;5112316;28;20198;-66
2022/08/02 01:15:51;;;;;;;2.13;2.07;;;;;;;22.65;65.25;99056.53;5112754;28;20198;-66
2022/08/02 01:18:26;;;;;;;1.93;1.83;;;;;;;22.64;64.97;99065.34;5112246;28;20191;-66
2022/08/02 01:21:11;;;;;;;1.60;1.60;;;;;;;22.49;65.17;99043.13;5112570;28;20194;-66
2022/08/02 01:23:47;;;;;;;2.10;2.00;;;;;;;;;;5111542;28;20539;-67
2022/08/02 01:26:31;;;;;;;2.23;2.13;;;;;;;22.57;66.02;99069.44;5111851;28;20195;-66
2022/08/02 01:29:04;;;;;;;2.13;2.10;;;;;;;22.48;66.34;99071.03;5110342;28;20225;-66
2022/08/02 01:31:34;;;;;;;1.73;1.70;;;;;;;22.51;65.99;99067.34;5110655;28;20700;-66
2022/08/02 01:34:05;;;;;;;3.13;2.80;;;;;;;22.51;66.03;99069.94;5112498;28;20199;-66
2022/08/02 01:36:37;;;;;;;1.93;1.93;;;;;;;22.49;66.53;99074.47;5110255;28;20191;-66
2022/08/02 01:39:05;;;;;;;2.50;2.40;;;;;;;;;;5112058;28;20684;-66
2022/08/02 01:41:34;;;;;;;2.40;2.30;;;;;;;22.48;66.37;99062.38;5111387;28;20624;-66
2022/08/02 01:44:05;;;;;;;2.37;2.27;;;;;;;22.47;66.83;99066.78;5112204;28;20658;-66
2022/08/02 01:46:34;;;;;;;2.47;2.27;;;;;;;22.35;66.87;99053.91;5109819;28;20203;-66
2022/08/02 01:49:07;;;;;;;2.43;2.33;;;;;;;22.40;67.01;99059.56;5111827;28;20206;-66
2022/08/02 01:54:25;;;;;;;2.70;2.50;;;;;;;22.20;67.65;99055.19;5111685;28;20248;-66
2022/08/02 01:56:53;;;;;;;2.17;2.17;;;;;;;22.10;68.03;99059.53;5110179;28;20206;-66
2022/08/02 01:59:23;;;;;;;2.50;2.40;;;;;;;22.03;68.17;99068.81;5110690;28;20319;-66
2022/08/02 02:01:54;;;;;;;4.93;2.57;;;;;;;22.00;68.33;99058.63;5111211;28;20228;-66
2022/08/02 02:04:22;;;;;;;2.10;2.00;;;;;;;21.92;68.73;99054.84;5111429;28;20214;-66
2022/08/02 02:06:50;;;;;;;2.30;2.30;;;;;;;21.83;68.87;99050.38;5111763;28;20221;-66
2022/08/02 02:09:19;;;;;;;2.13;2.13;;;;;;;21.77;69.14;99050.88;5111201;28;20221;-66
2022/08/02 02:11:47;;;;;;;2.00;1.90;;;;;;;21.76;69.16;99045.75;5111891;28;20205;-66
2022/08/02 02:14:17;;;;;;;2.40;2.30;;;;;;;21.74;69.09;99053.72;5109894;28;20207;-66
2022/08/02 02:16:47;;;;;;;3.40;2.40;;;;;;;21.75;69.41;99047.53;5111949;28;20198;-66
2022/08/02 02:19:16;;;;;;;2.50;2.40;;;;;;;21.80;68.95;99055.00;5110733;28;20544;-66
2022/08/02 02:21:43;;;;;;;2.47;2.27;;;;;;;21.79;68.73;99062.00;5111546;28;20208;-66
2022/08/02 02:24:11;;;;;;;2.20;2.10;;;;;;;21.81;68.86;99049.66;5110795;28;20195;-66
2022/08/02 02:26:38;;;;;;;2.10;2.00;;;;;;;21.86;68.30;99055.34;5111188;28;20677;-66
2022/08/02 02:29:08;;;;;;;2.17;2.07;;;;;;;21.75;68.32;99034.50;5110772;28;20242;-66
2022/08/02 02:31:38;;;;;;;4.80;1.87;;;;;;;21.85;67.80;99051.06;5111357;28;20194;-66
2022/08/02 02:34:10;;;;;;;1.90;1.80;;;;;;;21.81;68.46;99065.31;5111121;28;20207;-66
2022/08/02 02:36:39;;;;;;;2.10;2.00;;;;;;;21.81;68.03;99062.69;5110724;28;20221;-66
2022/08/02 02:39:09;;;;;;;2.10;2.00;;;;;;;21.77;68.21;99060.47;5109297;28;20705;-66
2022/08/02 02:41:38;;;;;;;2.00;1.90;;;;;;;21.77;68.14;99053.47;5104641;28;20205;-66
2022/08/02 02:44:09;;;;;;;1.80;1.70;;;;;;;21.82;68.09;99051.31;5109699;28;20267;-66
2022/08/02 02:46:37;;;;;;;2.13;2.03;;;;;;;21.82;68.38;99056.53;5109545;28;20327;-66
2022/08/02 02:49:07;;;;;;;1.70;1.70;;;;;;;21.83;67.99;99052.97;5109296;28;20313;-67
2022/08/02 02:51:34;;;;;;;2.27;2.17;;;;;;;21.84;67.90;99059.03;5110050;28;20200;-66
2022/08/02 02:54:02;;;;;;;1.67;1.67;;;;;;;21.79;67.83;99053.34;5109986;28;20210;-66
2022/08/02 02:56:29;;;;;;;1.83;1.73;;;;;;;21.75;68.15;99051.94;5109696;28;20590;-66
2022/08/02 02:58:56;;;;;;;2.27;2.17;;;;;;;21.69;68.75;99050.66;5110906;28;20229;-67
2022/08/02 03:01:30;;;;;;;2.13;2.03;;;;;;;21.66;68.59;99060.50;5109038;28;20685;-66
2022/08/02 03:04:00;;;;;;;2.23;2.13;;;;;;;21.59;68.46;99047.13;5110526;28;20295;-66
2022/08/02 03:06:29;;;;;;;2.27;2.17;;;;;;;21.49;68.64;99033.16;5109493;28;20737;-66
2022/08/02 03:08:57;;;;;;;2.30;2.20;;;;;;;21.61;68.85;99063.50;5110908;28;20208;-66
2022/08/02 03:11:28;;;;;;;2.00;2.00;;;;;;;21.51;68.64;99041.72;5110432;28;20190;-66
2022/08/02 03:13:57;;;;;;;2.40;2.30;;;;;;;21.49;68.76;99038.38;5110612;28;20200;-67
2022/08/02 03:16:24;;;;;;;2.80;2.33;;;;;;;21.64;68.60;99058.03;5110188;28;20209;-66
2022/08/02 03:18:51;;;;;;;1.70;1.70;;;;;;;21.67;68.45;99057.78;5108946;28;20211;-66
2022/08/02 03:21:17;;;;;;;2.03;1.93;;;;;;;21.71;68.66;99061.78;5110212;28;20195;-66
2022/08/02 03:23:46;;;;;;;1.67;1.67;;;;;;;21.71;68.48;99061.78;5110331;28;20642;-66
2022/08/02 03:26:13;;;;;;;2.00;1.90;;;;;;;21.72;68.50;99058.22;5110506;28;20202;-66
2022/08/02 03:28:40;;;;;;;2.17;2.07;;;;;;;21.68;68.88;99054.19;5110051;28;20294;-67
2022/08/02 03:31:07;;;;;;;2.03;1.93;;;;;;;21.58;68.40;99050.72;5110197;28;20218;-67
2022/08/02 03:33:35;;;;;;;2.47;2.27;;;;;;;21.67;68.36;99054.34;5109935;28;20200;-67
2022/08/02 03:36:07;;;;;;;2.73;2.53;;;;;;;21.65;68.72;99058.88;5109569;28;20214;-66
2022/08/02 03:38:35;;;;;;;2.00;2.00;;;;;;;21.58;68.58;99062.91;5109268;28;20292;-66
2022/08/02 03:41:05;;;;;;;2.93;2.73;;;;;;;21.60;68.46;99067.06;5110046;28;20211;-66
2022/08/02 03:43:32;;;;;;;2.40;2.30;;;;;;;21.64;68.76;99071.09;5106776;28;20198;-66
2022/08/02 03:46:01;;;;;;;1.97;1.90;;;;;;;21.70;68.48;99077.56;5110040;28;20288;-66
2022/08/02 03:48:31;;;;;;;1.90;1.80;;;;;;;21.76;68.30;99067.47;5109769;28;20199;-66
2022/08/02 03:50:58;;;;;;;1.80;1.80;;;;;;;21.80;67.91;99074.09;5112766;28;20222;-66
2022/08/02 03:53:25;;;;;;;2.20;2.00;;;;;;;21.91;67.94;99079.28;5113875;28;20698;-66
2022/08/02 03:55:53;;;;;;;2.17;2.00;;;;;;;21.94;67.72;99063.38;5113763;28;20206;-66
2022/08/02 03:58:23;;;;;;;1.73;1.73;;;;;;;22.10;67.53;99080.41;5113531;28;20198;-66
2022/08/02 04:00:52;;;;;;;2.23;2.13;;;;;;;22.14;67.31;99081.78;5113813;28;20201;-66
2022/08/02 04:03:19;;;;;;;3.43;1.90;;;;;;;22.23;67.43;99091.50;5114091;28;20551;-67
2022/08/02 04:05:46;;;;;;;2.03;1.80;;;;;;;22.24;67.12;99090.53;5113632;28;20221;-66
2022/08/02 04:08:15;;;;;;;2.20;2.10;;;;;;;22.27;67.14;99092.88;5113426;28;20199;-66
2022/08/02 04:13:30;;;;;;;1.97;1.87;;;;;;;22.35;66.72;99080.03;5113522;28;20209;-67
2022/08/02 04:16:03;;;;;;;1.83;1.83;;;;;;;22.44;66.57;99074.03;5113138;28;20191;-67
2022/08/02 04:18:36;;;;;;;3.10;2.27;;;;;;;22.66;66.23;99096.59;5113110;28;20241;-67
2022/08/02 04:21:06;;;;;;;2.40;2.30;;;;;;;22.73;64.68;99095.94;5111499;28;20642;-66
2022/08/02 04:23:36;;;;;;;2.60;2.27;;;;;;;22.85;66.24;99094.91;5108323;28;20206;-67
2022/08/02 04:26:04;;;;;;;1.83;1.73;;;;;;;22.94;64.39;99094.09;5111130;28;20190;-66
2022/08/02 04:28:35;;;;;;;3.47;1.87;;;;;;;23.07;63.85;99103.53;5112312;28;20201;-67
2022/08/02 04:31:03;;;;;;;1.90;1.83;;;;;;;23.19;64.03;99105.09;5113233;28;20215;-66
2022/08/02 04:33:31;;;;;;;3.47;2.30;;;;;;;23.32;64.36;99100.44;5113260;28;20593;-66
2022/08/02 04:35:58;;;;;;;2.27;2.03;;;;;;;23.53;64.46;99103.81;5113433;28;20198;-67
2022/08/02 04:38:25;;;;;;;1.93;1.83;;;;;;;23.80;63.74;99109.25;5112559;28;20203;-66
2022/08/02 04:40:53;;;;;;;1.93;1.77;;;;;;;24.09;61.97;99109.25;5113843;28;20735;-66
2022/08/02 04:43:20;;;;;;;2.40;2.23;;;;;;;24.32;61.40;99110.66;5112309;28;20201;-67
2022/08/02 04:45:51;;;;;;;2.20;2.10;;;;;;;24.58;59.89;99110.88;5113388;28;20203;-67
2022/08/02 04:48:18;;;;;;;2.30;2.10;;;;;;;24.79;60.20;99106.25;5112799;28;20198;-66
2022/08/02 04:50:45;;;;;;;3.40;1.60;;;;;;;24.89;58.01;99101.84;5111876;28;20218;-66
2022/08/02 04:53:12;;;;;;;1.70;1.60;;;;;;;25.15;58.75;99114.28;5111519;28;20692;-67
2022/08/02 04:55:38;;;;;;;1.97;1.80;;;;;;;25.32;57.58;99113.50;5112726;28;20658;-66
2022/08/02 04:58:06;;;;;;;1.40;1.40;;;;;;;25.39;57.14;99112.78;5111861;28;20215;-66
2022/08/02 05:00:32;;;;;;;2.27;1.67;;;;;;;25.57;56.43;99124.16;5112070;28;20566;-67
2022/08/02 05:03:01;;;;;;;2.00;1.77;;;;;;;25.85;55.64;99127.56;5112073;28;20670;-67
2022/08/02 05:05:28;;;;;;;2.20;2.00;;;;;;;26.02;54.83;99125.91;5112278;28;20234;-67
2022/08/02 05:07:55;;;;;;;1.73;1.63;;;;;;;26.13;54.61;99109.94;5112586;28;20194;-67
2022/08/02 05:10:22;;;;;;;3.37;1.83;;;;;;;26.37;53.70;99135.59;5112124;28;20222;-67
2022/08/02 05:12:50;;;;;;;2.10;2.00;;;;;;;26.54;51.88;99134.75;5112602;28;20692;-67
2022/08/02 05:15:17;;;;;;;1.63;1.53;;;;;;;26.56;51.10;99131.00;5112544;28;20208;-67
2022/08/02 05:17:45;;;;;;;1.93;1.70;;;;;;;26.68;53.42;99128.94;5111920;28;20237;-65
2022/08/02 05:20:13;;;;;;;1.90;1.80;;;;;;;26.93;52.08;99128.13;5111161;28;20195;-65
2022/08/02 05:22:40;;;;;;;1.80;1.80;;;;;;;26.91;50.84;99114.31;5111823;28;20623;-65
2022/08/02 05:25:08;;;;;;;1.80;1.70;;;;;;;27.12;52.30;99130.53;5111699;28;20195;-64
2022/08/02 05:27:35;;;;;;;6.07;2.43;;;;;;;27.42;52.04;99138.88;5110431;28;20586;-65
2022/08/02 05:30:03;;;;;;;2.00;1.90;;;;;;;27.49;49.85;99134.66;5111792;28;20222;-65
2022/08/02 05:32:30;;;;;;;5.68;1.88;;;;;;;27.68;49.50;99137.00;5108281;28;20434;-64
2022/08/02 05:34:57;;;;;;;1.53;1.53;;;;;;;27.90;49.02;99139.03;5113281;28;20194;-63
2022/08/02 05:37:25;;;;;;;1.83;1.80;;;;;;;27.94;47.60;99139.53;5113337;28;20274;-62
2022/08/02 05:39:51;;;;;;;1.93;1.70;;;;;;;28.06;47.22;99146.16;5112605;28;20205;-64
2022/08/02 05:42:18;;;;;;;2.10;1.87;;;;;;;28.19;46.30;99148.31;5111087;28;20214;-64
2022/08/02 05:44:45;;;;;;;1.63;1.53;;;;;;;28.38;46.65;99147.97;5111513;28;20199;-63
2022/08/02 05:47:12;;;;;;;1.53;1.53;;;;;;;28.62;45.40;99138.25;5110959;28;20217;-63
2022/08/02 05:49:39;;;;;;;1.60;1.50;;;;;;;28.67;44.60;99143.03;5110542;28;20221;-63
2022/08/02 05:52:14;;;;;;;1.97;1.87;;;;;;;28.89;45.78;99136.22;5112147;27;20681;-62
2022/08/02 05:54:49;;;;;;;1.70;1.60;;;;;;;28.93;43.45;99141.00;5110724;28;20243;-63
2022/08/02 05:57:21;;;;;;;3.23;2.00;;;;;;;28.89;43.86;99120.38;5112040;28;20665;-63
2022/08/02 05:59:59;;;;;;;1.63;1.52;;;;;;;29.06;42.79;99149.22;5108910;28;20504;-67
2022/08/02 06:02:30;;;;;;;1.63;1.53;;;;;;;29.15;42.29;99142.91;5108562;28;20202;-68
2022/08/02 06:05:03;;;;;;;1.97;1.70;;;;;;;29.16;43.38;99144.56;5110049;28;20238;-68
2022/08/02 06:07:34;;;;;;;1.40;1.40;;;;;;;29.05;43.86;99146.75;5110244;28;20209;-68
2022/08/02 06:10:04;;;;;;;1.83;1.73;;;;;;;29.11;42.32;99154.81;5111012;28;20264;-68
2022/08/02 06:12:33;;;;;;;1.60;1.60;;;;;;;29.39;42.61;99159.69;5109935;28;20244;-67
2022/08/02 06:15:01;;;;;;;4.38;1.92;;;;;;;29.73;44.23;99167.31;5110261;28;20210;-68
2022/08/02 06:17:29;;;;;;;1.80;1.70;;;;;;;29.80;43.92;99162.94;5110450;28;20559;-68
2022/08/02 06:19:57;;;;;;;1.58;1.50;;;;;;;29.86;43.91;99149.88;5110767;28;20210;-67
2022/08/02 06:22:26;;;;;;;1.80;1.55;;;;;;;30.10;42.54;99168.25;5107077;28;20289;-68
2022/08/02 06:24:54;;;;;;;1.73;1.63;;;;;;;30.16;43.66;99170.19;5107699;28;20202;-68
2022/08/02 06:27:26;;;;;;;2.15;1.33;;;;;;;30.17;42.11;99163.91;5107463;28;20210;-68
2022/08/02 06:29:55;;;;;;;1.60;1.60;;;;;;;30.14;43.92;99166.91;5108411;28;20206;-68
2022/08/02 06:32:22;;;;;;;7.03;1.88;;;;;;;30.29;43.46;99158.19;5108111;27;20210;-69
2022/08/02 06:34:49;;;;;;;1.30;1.30;;;;;;;30.37;43.12;99155.47;5108425;28;20213;-68
2022/08/02 06:37:25;;;;;;;1.40;1.30;;;;;;;30.42;44.30;99164.56;5107032;28;20731;-68
2022/08/02 06:39:59;;;;;;;2.13;1.45;;;;;;;30.71;42.50;99161.97;5107939;28;20841;-71
2022/08/02 06:42:37;;;;;;;1.20;1.20;;;;;;;31.03;40.45;99163.50;5110776;28;20202;-72
2022/08/02 06:45:05;;;;;;;1.40;1.40;;;;;;;31.16;41.24;99153.09;5108975;28;20209;-71
2022/08/02 06:47:32;;;;;;;1.30;1.30;;;;;;;31.27;40.46;99158.94;5107337;28;20206;-78
2022/08/02 06:49:59;;;;;;;1.17;1.10;;;;;;;31.31;41.33;99145.09;5109771;28;20203;-71
2022/08/02 06:52:30;;;;;;;1.40;1.40;;;;;;;31.38;38.62;99156.63;5106767;28;20206;-73
2022/08/02 06:54:58;;;;;;;1.55;1.30;;;;;;;31.30;41.27;99153.25;5107638;28;20202;-73
2022/08/02 06:57:26;;;;;;;1.10;1.10;;;;;;;31.44;40.78;99150.56;5107162;28;20211;-73
2022/08/02 06:59:54;;;;;;;1.10;1.10;;;;;;;31.60;40.31;99168.94;5108683;27;20625;-73
2022/08/02 07:02:21;;;;;;;1.50;1.30;;;;;;;31.75;42.66;99163.63;5107055;28;20206;-71
2022/08/02 07:04:48;;;;;;;1.02;1.02;;;;;;;32.02;38.78;99157.56;5108877;28;20236;-71
2022/08/02 07:07:15;;;;;;;1.35;1.35;;;;;;;32.19;39.44;99159.00;5109829;28;20662;-74
2022/08/02 07:09:42;;;;;;;1.20;1.10;;;;;;;32.52;37.91;99166.44;5109671;28;20198;-74
2022/08/02 07:12:09;;;;;;;2.33;1.30;;;;;;;32.75;38.53;99167.88;5108298;28;20232;-72
2022/08/02 07:14:38;;;;;;;1.15;1.15;;;;;;;33.03;38.97;99165.19;5110470;28;20198;-74
2022/08/02 07:17:06;;;;;;;1.63;1.52;;;;;;;33.17;38.89;99161.63;5109774;28;20319;-74
2022/08/02 07:19:33;;;;;;;1.05;0.90;;;;;;;33.35;37.42;99162.91;5108770;28;20547;-74
2022/08/02 07:22:00;;;;;;;2.97;1.20;;;;;;;33.61;39.33;99168.38;5109638;28;20203;-74
2022/08/02 07:24:27;;;;;;;1.02;1.02;;;;;;;33.83;36.58;99167.22;5110810;28;20331;-73
2022/08/02 07:26:54;;;;;;;0.93;0.90;;;;;;;33.85;34.33;99165.19;5114381;28;20717;-75
2022/08/02 07:29:20;;;;;;;3.38;0.90;;;;;;;33.39;36.53;99121.66;5113847;28;20211;-72
2022/08/02 07:31:49;;;;;;;0.68;0.68;;;;;;;33.74;33.10;99157.78;5114104;28;20678;-71
2022/08/02 07:34:15;;;;;;;0.82;0.82;;;;;;;33.91;33.60;99169.69;5114661;27;20210;-73
2022/08/02 07:36:42;;;;;;;0.60;0.60;;;;;;;33.93;32.34;99166.84;5114101;28;20197;-73
2022/08/02 07:39:09;;;;;;;0.80;0.80;;;;;;;33.74;33.91;99158.59;5113607;28;20198;-69
2022/08/02 07:41:36;;;;;;;2.65;0.93;;;;;;;33.66;35.33;99155.31;5113014;28;20207;-70
2022/08/02 07:44:03;;;;;;;0.90;0.90;;;;;;;34.11;34.52;99159.97;5111158;28;20662;-73
2022/08/02 07:46:32;;;;;;;0.63;0.63;;;;;;;34.25;32.36;99161.59;5109710;28;20297;-73
2022/08/02 07:49:00;;;;;;;0.98;0.90;;;;;;;34.23;33.16;99163.66;5113285;28;20194;-70
2022/08/02 07:51:27;;;;;;;1.20;1.15;;;;;;;34.25;33.33;99163.47;5109137;28;20708;-73
2022/08/02 07:53:53;;;;;;;0.70;0.70;;;;;;;34.45;32.16;99166.09;5110957;28;20206;-69
2022/08/02 07:56:20;;;;;;;0.80;0.80;;;;;;;34.60;32.87;99158.75;5112649;28;20207;-68
2022/08/02 07:58:47;;;;;;;0.70;0.70;;;;;;;34.67;37.46;99165.72;5112836;28;20195;-68
2022/08/02 08:01:14;;;;;;;0.70;0.70;;;;;;;34.98;32.58;99172.25;5109780;28;20191;-67
2022/08/02 08:03:41;;;;;;;0.57;0.57;;;;;;;35.08;31.38;99168.13;5112847;28;20210;-68
2022/08/02 08:06:09;;;;;;;2.70;0.80;;;;;;;35.37;34.20;99171.34;5109474;28;20578;-69
2022/08/02 08:08:36;;;;;;;0.60;0.60;;;;;;;35.45;33.71;99165.75;5104484;28;20713;-68
2022/08/02 08:11:03;;;;;;;0.70;0.70;;;;;;;35.35;30.73;99174.19;5112364;28;20309;-67
2022/08/02 08:13:30;;;;;;;0.55;0.55;;;;;;;35.11;30.02;99173.06;5112722;28;20199;-66
2022/08/02 08:15:57;;;;;;;0.60;0.60;;;;;;;34.98;34.11;99166.91;5113388;28;20202;-68
2022/08/02 08:18:24;;;;;;;1.50;0.60;;;;;;;34.95;35.59;99165.47;5110788;28;20691;-67
2022/08/02 08:20:51;;;;;;;0.70;0.70;;;;;;;34.95;35.63;99168.16;5112737;28;20195;-69
2022/08/02 08:23:20;;;;;;;0.55;0.55;;;;;;;34.95;33.00;99170.81;5112699;28;20206;-68
2022/08/02 08:25:47;;;;;;;0.70;0.70;;;;;;;34.61;33.12;99176.38;5113215;28;20256;-69
2022/08/02 08:28:14;;;;;;;0.70;0.70;;;;;;;34.71;32.17;99172.28;5113135;28;20206;-68
2022/08/02 08:30:41;;;;;;;0.65;0.65;;;;;;;34.90;35.59;99173.25;5112520;28;20774;-69
2022/08/02 08:33:09;;;;;;;0.75;0.75;;;;;;;35.06;32.86;99172.03;5110742;28;20230;-69
2022/08/02 08:35:36;;;;;;;0.70;0.60;;;;;;;35.23;33.02;99168.72;5112103;28;20259;-70
2022/08/02 08:38:03;;;;;;;0.60;0.60;;;;;;;35.53;31.71;99170.84;5113205;28;20203;-69
2022/08/02 08:40:31;;;;;;;0.65;0.65;;;;;;;35.68;30.57;99168.75;5111964;28;20233;-69
2022/08/02 08:42:59;;;;;;;0.60;0.60;;;;;;;35.90;31.08;99178.06;5112057;28;20195;-69
2022/08/02 08:45:26;;;;;;;3.13;0.80;;;;;;;36.12;31.30;99173.25;5112833;28;20212;-69
2022/08/02 08:48:06;;;;;;;4.13;0.98;;;;;;;36.07;30.86;99175.75;5112973;28;20289;-70
2022/08/02 08:50:40;;;;;;;0.50;0.50;;;;;;;36.11;29.19;99175.13;5112895;28;20295;-68
2022/08/02 08:53:10;;;;;;;2.08;1.67;;;;;;;35.55;29.95;99168.78;5112284;28;20263;-67
2022/08/02 08:55:38;;;;;;;0.60;0.60;;;;;;;35.07;31.80;99166.47;5106629;28;20209;-68
2022/08/02 08:58:06;;;;;;;1.50;0.50;;;;;;;35.25;30.00;99163.97;5111848;28;20688;-69
2022/08/02 09:00:36;;;;;;;2.20;0.57;;;;;;;34.69;29.49;99162.84;5112567;28;20252;-68
2022/08/02 09:03:04;;;;;;;0.50;0.50;;;;;;;34.56;32.05;99165.50;5113216;28;20205;-67
2022/08/02 09:05:34;;;;;;;0.50;0.50;;;;;;;34.43;30.78;99162.84;5110531;28;20611;-68
2022/08/02 09:08:01;;;;;;;0.70;0.70;;;;;;;34.09;31.17;99159.28;5112073;27;20207;-66
2022/08/02 09:10:44;;;;;;;0.55;0.55;;;;;;;34.02;31.95;99161.16;5109482;28;20229;-68
2022/08/02 09:13:17;;;;;;;0.73;0.73;;;;;;;34.23;33.40;99158.31;5107742;28;20199;-68
2022/08/02 09:15:45;;;;;;;0.73;0.70;;;;;;;34.49;33.03;99160.16;5107242;28;20219;-68
2022/08/02 09:18:13;;;;;;;1.40;0.70;;;;;;;34.89;32.38;99154.84;5108655;28;20226;-68
2022/08/02 09:20:56;;;;;;;0.90;0.90;;;;;;;34.96;32.91;99153.78;5108351;28;20203;-67
2022/08/02 09:23:23;;;;;;;0.73;0.70;;;;;;;34.38;32.63;99150.13;5111885;28;20202;-68
2022/08/02 09:26:00;;;;;;;0.70;0.70;;;;;;;34.57;33.50;99145.84;5110473;28;20248;-67
2022/08/02 09:28:28;;;;;;;0.50;0.50;;;;;;;34.75;33.59;99146.03;5109429;28;20205;-69
2022/08/02 09:30:57;;;;;;;0.82;0.82;;;;;;;34.67;33.65;99140.94;5109730;28;20199;-70
2022/08/02 09:33:25;;;;;;;0.70;0.70;;;;;;;34.68;31.80;99146.06;5109868;28;20202;-69
2022/08/02 09:35:59;;;;;;;0.80;0.80;;;;;;;34.62;32.67;99135.41;5109766;28;20237;-71
2022/08/02 09:38:26;;;;;;;0.70;0.70;;;;;;;34.84;32.95;99131.47;5108556;28;20222;-70
2022/08/02 09:40:53;;;;;;;0.60;0.60;;;;;;;35.07;31.74;99147.00;5107931;28;20203;-69
2022/08/02 09:43:22;;;;;;;0.85;0.70;;;;;;;34.82;31.00;99141.53;5109653;28;20210;-68
2022/08/02 09:45:48;;;;;;;0.80;0.80;;;;;;;34.79;33.33;99148.09;5109682;28;20206;-71
2022/08/02 09:48:15;;;;;;;1.08;1.08;;;;;;;34.77;32.36;99150.13;5110341;28;20202;-70
2022/08/02 09:50:46;;;;;;;0.70;0.70;;;;;;;35.02;33.17;99142.31;5110492;28;20574;-71
2022/08/02 09:53:13;;;;;;;0.82;0.82;;;;;;;35.25;33.88;99137.31;5108936;28;20313;-69
2022/08/02 09:55:41;;;;;;;0.80;0.80;;;;;;;35.11;31.93;99141.09;5108415;28;20194;-70
2022/08/02 09:58:18;;;;;;;0.60;0.60;;;;;;;34.84;32.09;99139.47;5107148;28;20203;-71
2022/08/02 10:00:57;;;;;;;0.93;0.75;;;;;;;34.67;33.06;99139.09;5110167;28;20198;-72
2022/08/02 10:03:24;;;;;;;0.60;0.60;;;;;;;34.19;32.70;99130.47;5109162;28;20198;-68
2022/08/02 10:05:53;;;;;;;0.60;0.60;;;;;;;34.47;32.23;99137.44;5110849;28;20230;-70
2022/08/02 10:08:22;;;;;;;0.60;0.60;;;;;;;34.60;34.42;99127.66;5110039;28;20235;-71
2022/08/02 10:10:59;;;;;;;0.60;0.60;;;;;;;34.92;37.08;99125.13;5108517;28;20238;-70
2022/08/02 10:13:28;;;;;;;0.63;0.60;;;;;;;35.32;32.60;99136.50;5109840;28;20226;-70
2022/08/02 10:15:58;;;;;;;0.70;0.70;;;;;;;35.14;33.70;99135.34;5108846;28;20233;-73
2022/08/02 10:18:25;;;;;;;0.57;0.57;;;;;;;34.79;32.90;99128.63;5109704;28;20860;-71
2022/08/02 10:20:56;;;;;;;0.80;0.80;;;;;;;34.65;32.54;99124.34;5110342;28;20210;-70
2022/08/02 10:23:26;;;;;;;6.88;1.05;;;;;;;34.86;33.80;99126.78;5111367;27;20202;-70
2022/08/02 10:25:54;;;;;;;0.95;0.95;;;;;;;34.67;32.80;99127.63;5111162;28;20260;-69
2022/08/02 10:28:28;;;;;;;0.65;0.65;;;;;;;34.44;33.66;99127.22;5111063;28;20262;-67
2022/08/02 10:30:59;;;;;;;0.50;0.50;;;;;;;34.43;34.75;99130.88;5109873;28;20202;-70
2022/08/02 10:33:27;;;;;;;1.05;1.05;;;;;;;34.45;33.90;99128.81;5105746;28;20245;-70
2022/08/02 10:35:57;;;;;;;0.80;0.80;;;;;;;34.50;32.67;99137.03;5108598;28;20212;-69
2022/08/02 10:38:26;;;;;;;0.80;0.80;;;;;;;34.51;32.62;99125.38;5107887;28;20206;-68
2022/08/02 10:40:54;;;;;;;0.70;0.70;;;;;;;34.53;33.16;99128.63;5110095;28;20202;-70
2022/08/02 10:43:43;;;;;;;1.05;1.05;;;;;;;34.63;33.15;99123.75;5110755;28;20208;-67
2022/08/02 10:46:32;;;;;;;1.75;0.70;;;;;;;34.68;31.68;99123.94;5104024;28;20195;-71
2022/08/02 10:49:11;;;;;;;0.73;0.73;;;;;;;34.47;32.68;99130.28;5109958;28;20217;-68
2022/08/02 10:51:58;;;;;;;0.50;0.50;;;;;;;34.37;34.41;99126.38;5110293;28;20701;-72
2022/08/02 10:54:27;;;;;;;0.63;0.63;;;;;;;34.56;32.54;99126.38;5109168;28;20199;-70
2022/08/02 10:56:56;;;;;;;1.30;0.70;;;;;;;34.87;31.89;99123.06;5110890;28;20662;-70
2022/08/02 10:59:28;;;;;;;0.80;0.80;;;;;;;35.04;32.30;99124.25;5109583;28;20217;-69
2022/08/02 11:02:01;;;;;;;0.70;0.70;;;;;;;35.15;32.23;99115.66;5108583;28;20285;-69
2022/08/02 11:04:30;;;;;;;1.05;0.80;;;;;;;35.00;32.27;99112.38;5110260;28;20264;-71
2022/08/02 11:07:12;;;;;;;0.85;0.85;;;;;;;35.06;32.83;99100.88;5110351;28;20210;-70
2022/08/02 11:09:40;;;;;;;0.80;0.80;;;;;;;35.04;33.38;99102.13;5109688;28;20623;-71
2022/08/02 11:12:09;;;;;;;0.80;0.80;;;;;;;34.76;31.33;99102.41;5109827;28;20739;-68
2022/08/02 11:14:38;;;;;;;0.60;0.60;;;;;;;34.62;31.29;99103.47;5110678;28;20198;-71
2022/08/02 11:17:19;;;;;;;0.80;0.80;;;;;;;34.56;33.17;99098.94;5109649;28;20774;-69
2022/08/02 11:20:15;;;;;;;0.75;0.75;;;;;;;34.72;32.32;99098.53;5111160;28;20186;-69
2022/08/02 11:22:43;;;;;;;0.70;0.70;;;;;;;34.75;30.24;99103.44;5111703;28;20224;-71
2022/08/02 11:25:35;;;;;;;0.80;0.80;;;;;;;34.95;31.75;99096.22;5111686;28;20623;-70
2022/08/02 11:28:13;;;;;;;1.65;0.65;;;;;;;35.28;31.28;99093.47;5110050;28;20210;-71
2022/08/02 11:30:40;;;;;;;0.60;0.60;;;;;;;35.43;31.15;99098.50;5111409;28;20589;-70
2022/08/02 11:33:09;;;;;;;1.38;0.70;;;;;;;35.06;29.27;99068.09;5109842;28;20235;-68
2022/08/02 11:35:37;;;;;;;0.80;0.80;;;;;;;34.77;30.25;99080.06;5105430;28;20190;-69
2022/08/02 11:38:15;;;;;;;0.60;0.60;;;;;;;34.83;31.33;99089.91;5104427;28;20612;-70
2022/08/02 11:40:41;;;;;;;0.73;0.73;;;;;;;34.91;32.25;99092.31;5110463;28;20206;-69
2022/08/02 11:43:17;;;;;;;2.03;0.80;;;;;;;34.94;32.11;99091.09;5109727;28;20206;-68
2022/08/02 11:45:44;;;;;;;0.70;0.60;;;;;;;35.21;32.20;99088.16;5106700;28;20209;-68
2022/08/02 11:48:13;;;;;;;1.20;0.70;;;;;;;34.83;32.20;99081.91;5109449;28;20199;-69
2022/08/02 11:50:39;;;;;;;0.80;0.80;;;;;;;34.44;33.62;99080.13;5109944;28;20195;-70